You are listening to:
ZNY New York Center Sector 27 - Harrisburg, Pennsylvania, United States

KMDT 060956Z 31003KT 10SM SCT043 SCT055 23/19 A2987 RMK AO2 SLP112 T02330194

If stream doesn't start automatically press the play button
If stream stops then reload player then press play